ADDS TAF Data INFO
IDs: Format: Raw Decoded Include METARs

Data at: 0352 UTC 20 Nov 2017

KPVW 200335Z AUTO 21007KT 10SM CLR 03/M10 A3012 RMK AO2 T00301096

KPVW 192320Z 2000/2024 20011KT P6SM SCT250